Terminal Aerodrome Forecast
Issued by NWS

Home | Current Version | Previous Version | Text Only | Print | Product List | Glossary On
Versions: 1 2 3 4 5 6 7 8 9 10 11 12 13 14 15 16
282
FTUS45 KABQ 262002 AAB
TAFGUP
TAF AMD
KGUP 262002Z 2620/2718 27011KT P6SM VCSH SCT090 BKN150
      TEMPO 2620/2623 VRB20G30KT 6SM -TSRA BKN090CB
     FM262300 27011KT P6SM BKN100
     FM270200 20006KT P6SM FEW120
     FM270600 12005KT P6SM FEW120
     FM271500 23011KT P6SM SKC=

USA.gov is the U.S. government's official web portal to all federal, state and local government web resources and services.